Time;durP1;ratioP1;P1;durP2;ratioP2;P2;SDS_P1;SDS_P2;PMS_P1;PMS_P2;Temp;Humidity;BMP_temperature;BMP_pressure;BME280_temperature;BME280_humidity;BME280_pressure;Samples;Min_cycle;Max_cycle;Signal;HPM_P1;HPM_P2
2023/08/10 00:01:26;;;;;;;7.30;5.00;;;24.70;66.10;;;;;;4858974;29;20560;-86
2023/08/10 00:03:54;;;;;;;6.40;4.87;;;24.70;66.10;;;;;;4858447;29;20480;-85
2023/08/10 00:06:22;;;;;;;7.70;5.20;;;24.70;66.10;;;;;;4857880;29;20823;-86
2023/08/10 00:08:51;;;;;;;7.93;5.03;;;24.70;66.10;;;;;;4855107;29;20974;-86
2023/08/10 00:11:19;;;;;;;11.97;7.80;;;24.70;66.10;;;;;;4857461;29;20984;-85
2023/08/10 00:13:48;;;;;;;8.00;5.10;;;24.70;66.10;;;;;;4865269;29;20464;-85
2023/08/10 00:16:17;;;;;;;8.47;5.70;;;24.70;66.10;;;;;;4861086;29;20887;-87
2023/08/10 00:18:45;;;;;;;5.30;4.30;;;24.70;66.10;;;;;;4856510;29;20578;-86
2023/08/10 00:21:13;;;;;;;5.60;4.43;;;24.70;66.10;;;;;;4853865;29;20547;-86
2023/08/10 00:23:42;;;;;;;5.57;5.03;;;24.70;66.10;;;;;;4855333;29;20551;-86
2023/08/10 00:26:10;;;;;;;6.90;5.53;;;24.70;66.20;;;;;;4854237;29;21469;-86
2023/08/10 00:28:38;;;;;;;6.70;4.80;;;24.70;66.20;;;;;;4863179;29;20508;-86
2023/08/10 00:31:08;;;;;;;7.07;5.17;;;24.70;66.20;;;;;;4853234;29;20481;-89
2023/08/10 00:33:38;;;;;;;8.67;5.57;;;24.70;66.20;;;;;;4856750;29;20467;-87
2023/08/10 00:36:07;;;;;;;5.40;4.20;;;24.70;66.10;;;;;;4854502;29;20982;-86
2023/08/10 00:38:37;;;;;;;7.93;5.43;;;24.70;66.20;;;;;;4856365;29;20516;-86
2023/08/10 00:41:06;;;;;;;6.63;5.50;;;24.70;66.20;;;;;;4855398;29;20489;-86
2023/08/10 00:43:34;;;;;;;5.17;4.20;;;24.70;66.20;;;;;;4858493;29;20468;-86
2023/08/10 00:46:03;;;;;;;6.97;4.53;;;24.70;66.20;;;;;;4861521;29;20571;-86
2023/08/10 00:48:33;;;;;;;6.30;4.40;;;24.70;66.20;;;;;;4857294;29;20559;-86
2023/08/10 00:51:02;;;;;;;5.77;4.07;;;24.70;66.20;;;;;;4858938;29;21019;-86
2023/08/10 00:53:30;;;;;;;7.63;4.70;;;24.70;66.20;;;;;;4858561;29;21352;-85
2023/08/10 00:56:00;;;;;;;6.10;4.07;;;24.70;66.20;;;;;;4854583;29;20468;-86
2023/08/10 00:58:32;;;;;;;6.70;4.27;;;24.70;66.20;;;;;;4852634;29;20470;-86
2023/08/10 01:01:00;;;;;;;7.13;5.17;;;24.60;66.20;;;;;;4867237;29;20486;-85
2023/08/10 01:03:28;;;;;;;4.63;3.90;;;24.60;66.20;;;;;;4859582;29;20492;-86
2023/08/10 01:06:06;;;;;;;5.30;4.17;;;24.60;66.20;;;;;;4854177;29;20483;-86
2023/08/10 01:08:45;;;;;;;5.70;4.13;;;24.60;66.20;;;;;;4853015;29;20465;-86
2023/08/10 01:11:23;;;;;;;6.47;4.13;;;24.60;66.20;;;;;;4851983;29;20470;-86
2023/08/10 01:13:59;;;;;;;4.30;3.90;;;24.60;66.20;;;;;;4851821;29;20963;-86
2023/08/10 01:16:29;;;;;;;5.83;3.70;;;24.60;66.20;;;;;;4858438;29;20531;-86
2023/08/10 01:19:00;;;;;;;6.00;4.00;;;24.60;66.20;;;;;;4857350;29;20467;-85
2023/08/10 01:21:37;;;;;;;4.53;3.90;;;24.60;66.20;;;;;;4859106;29;20473;-86
2023/08/10 01:24:16;;;;;;;3.77;3.40;;;24.60;66.20;;;;;;4856602;29;20512;-85
2023/08/10 01:26:47;;;;;;;6.97;3.97;;;24.60;66.30;;;;;;4858925;29;20555;-85
2023/08/10 01:29:17;;;;;;;6.60;4.60;;;24.60;66.30;;;;;;4865338;29;20508;-85
2023/08/10 01:31:46;;;;;;;4.47;4.07;;;24.60;66.30;;;;;;4858909;29;20454;-85
2023/08/10 01:34:14;;;;;;;4.70;4.20;;;24.60;66.30;;;;;;4858059;29;20470;-86
2023/08/10 01:36:43;;;;;;;6.30;4.13;;;24.60;66.30;;;;;;4856717;29;20486;-86
2023/08/10 01:39:11;;;;;;;8.77;4.37;;;24.60;66.30;;;;;;4853623;29;20479;-86
2023/08/10 01:41:39;;;;;;;5.90;3.93;;;24.60;66.30;;;;;;4857506;29;20909;-86
2023/08/10 01:44:09;;;;;;;5.50;3.90;;;24.60;66.30;;;;;;4851476;29;21029;-88
2023/08/10 01:46:40;;;;;;;4.83;3.77;;;24.60;66.30;;;;;;4855066;29;20465;-86
2023/08/10 01:49:10;;;;;;;4.47;4.07;;;24.60;66.30;;;;;;4852325;29;20469;-90
2023/08/10 01:51:41;;;;;;;3.77;3.20;;;24.60;66.30;;;;;;4858014;29;20475;-86
2023/08/10 01:54:11;;;;;;;4.47;3.30;;;24.50;66.30;;;;;;4852965;29;20470;-86
2023/08/10 01:56:39;;;;;;;5.67;3.40;;;24.60;66.30;;;;;;4859905;29;20462;-86
2023/08/10 01:59:09;;;;;;;6.33;4.60;;;24.60;66.30;;;;;;4853833;29;20540;-86
2023/08/10 02:01:37;;;;;;;4.80;3.60;;;24.50;66.30;;;;;;4855650;29;20518;-85
2023/08/10 02:04:05;;;;;;;4.07;3.10;;;24.50;66.30;;;;;;4859636;29;20884;-86
2023/08/10 02:06:40;;;;;;;3.60;3.30;;;24.50;66.30;;;;;;4869473;29;20491;-85
2023/08/10 02:09:08;;;;;;;5.33;3.60;;;24.50;66.30;;;;;;4864952;29;20471;-87
2023/08/10 02:11:36;;;;;;;4.80;4.07;;;24.50;66.30;;;;;;4860320;29;20470;-87
2023/08/10 02:14:05;;;;;;;4.53;3.70;;;24.50;66.30;;;;;;4856368;29;20465;-86
2023/08/10 02:16:35;;;;;;;6.53;3.70;;;24.50;66.30;;;;;;4861684;29;21061;-86
2023/08/10 02:19:04;;;;;;;4.10;2.80;;;24.50;66.30;;;;;;4864371;29;20571;-86
2023/08/10 02:21:32;;;;;;;6.27;4.10;;;24.50;66.40;;;;;;4854996;29;20482;-86
2023/08/10 02:24:01;;;;;;;4.17;3.80;;;24.50;66.30;;;;;;4859055;29;20788;-89
2023/08/10 02:26:29;;;;;;;4.60;3.47;;;24.50;66.30;;;;;;4858012;29;20859;-86
2023/08/10 02:28:57;;;;;;;3.63;3.30;;;24.50;66.50;;;;;;4857490;29;20475;-86
2023/08/10 02:31:26;;;;;;;3.60;3.30;;;24.50;66.50;;;;;;4855748;29;20974;-86
2023/08/10 02:33:56;;;;;;;4.50;3.60;;;24.50;66.50;;;;;;4853037;29;20460;-90
2023/08/10 02:36:24;;;;;;;3.40;3.00;;;24.50;66.50;;;;;;4853629;29;20494;-87
2023/08/10 02:38:52;;;;;;;4.10;3.10;;;24.50;66.50;;;;;;4859619;29;20472;-86
2023/08/10 02:41:20;;;;;;;5.57;3.47;;;24.50;66.50;;;;;;4860175;29;20482;-88
2023/08/10 02:43:49;;;;;;;4.13;3.73;;;24.50;66.50;;;;;;4857113;29;20470;-86
2023/08/10 02:46:17;;;;;;;5.60;3.50;;;24.50;66.50;;;;;;4849360;29;20483;-86
2023/08/10 02:48:46;;;;;;;3.77;3.07;;;24.50;66.50;;;;;;4860622;29;20475;-86
2023/08/10 02:51:15;;;;;;;2.90;2.63;;;24.50;66.50;;;;;;4858081;29;20467;-86
2023/08/10 02:53:45;;;;;;;4.40;2.80;;;24.40;66.50;;;;;;4854018;29;20557;-86
2023/08/10 02:56:13;;;;;;;3.33;3.03;;;24.40;66.50;;;;;;4856630;29;20903;-86
2023/08/10 02:58:41;;;;;;;4.20;3.07;;;24.40;66.50;;;;;;4857536;29;20479;-86
2023/08/10 03:01:10;;;;;;;3.83;3.30;;;24.40;66.50;;;;;;4857240;29;20522;-87
2023/08/10 03:03:40;;;;;;;3.13;2.73;;;24.40;66.50;;;;;;4870566;29;20463;-86
2023/08/10 03:06:08;;;;;;;5.13;3.10;;;24.40;66.50;;;;;;4852860;29;20472;-88
2023/08/10 03:08:38;;;;;;;5.13;3.43;;;24.40;66.50;;;;;;4861436;29;20467;-86
2023/08/10 03:11:06;;;;;;;4.07;2.57;;;24.40;66.50;;;;;;4850926;29;20464;-86
2023/08/10 03:13:34;;;;;;;2.93;2.57;;;24.40;66.50;;;;;;4850705;29;20860;-86
2023/08/10 03:16:03;;;;;;;3.07;2.77;;;24.40;66.50;;;;;;4847734;29;20481;-86
2023/08/10 03:18:31;;;;;;;4.47;2.90;;;24.40;66.50;;;;;;4847942;29;20528;-86
2023/08/10 03:20:59;;;;;;;3.80;2.80;;;24.40;66.50;;;;;;4848953;29;20503;-86
2023/08/10 03:23:28;;;;;;;4.17;2.50;;;24.40;66.50;;;;;;4856533;29;20478;-85
2023/08/10 03:25:57;;;;;;;2.77;2.53;;;24.40;66.50;;;;;;4858134;29;20540;-85
2023/08/10 03:28:25;;;;;;;4.93;3.00;;;24.40;66.50;;;;;;4873783;29;20472;-85
2023/08/10 03:30:54;;;;;;;2.87;2.57;;;24.40;66.50;;;;;;4868817;29;20468;-85
2023/08/10 03:33:23;;;;;;;3.10;2.80;;;24.40;66.50;;;;;;4851442;29;20784;-85
2023/08/10 03:35:51;;;;;;;2.60;2.40;;;24.40;66.50;;;;;;4857165;29;20555;-86
2023/08/10 03:38:19;;;;;;;3.70;2.90;;;24.40;66.50;;;;;;4847710;29;20466;-85
2023/08/10 03:40:48;;;;;;;3.03;2.40;;;24.40;66.50;;;;;;4860096;29;20462;-85
2023/08/10 03:43:18;;;;;;;3.07;2.77;;;24.40;66.50;;;;;;4852757;29;20479;-85
2023/08/10 03:45:46;;;;;;;3.13;2.70;;;24.40;66.50;;;;;;4858550;29;20996;-86
2023/08/10 03:48:14;;;;;;;2.57;2.30;;;24.40;66.50;;;;;;4853656;29;20477;-86
2023/08/10 03:50:43;;;;;;;3.70;2.70;;;24.40;66.50;;;;;;4872387;29;20831;-86
2023/08/10 03:53:14;;;;;;;2.53;2.33;;;24.40;66.50;;;;;;4853579;29;20997;-89
2023/08/10 03:55:45;;;;;;;3.83;2.60;;;24.40;66.50;;;;;;4871335;29;20551;-86
2023/08/10 03:58:14;;;;;;;3.10;2.80;;;24.40;66.50;;;;;;4854485;29;20523;-88
2023/08/10 04:00:45;;;;;;;3.00;2.70;;;24.40;66.50;;;;;;4858237;29;20482;-86
2023/08/10 04:03:15;;;;;;;2.77;2.57;;;24.40;66.50;;;;;;4857731;29;20485;-85
2023/08/10 04:05:44;;;;;;;3.93;2.57;;;24.40;66.50;;;;;;4852553;29;20477;-86
2023/08/10 04:08:12;;;;;;;3.43;2.60;;;24.40;66.50;;;;;;4850490;29;20461;-86
2023/08/10 04:10:41;;;;;;;2.37;2.17;;;24.40;66.50;;;;;;4858182;29;20481;-86
2023/08/10 04:13:09;;;;;;;2.63;2.43;;;24.40;66.50;;;;;;4858999;29;21065;-88
2023/08/10 04:15:37;;;;;;;3.20;2.13;;;24.40;66.50;;;;;;4869061;29;20473;-86
2023/08/10 04:18:07;;;;;;;2.43;2.23;;;24.30;66.50;;;;;;4854848;29;20476;-85
2023/08/10 04:20:36;;;;;;;2.47;2.27;;;24.40;66.50;;;;;;4858308;29;20965;-86
2023/08/10 04:23:05;;;;;;;2.50;2.30;;;24.40;66.50;;;;;;4853133;29;20480;-85
2023/08/10 04:25:34;;;;;;;2.43;2.20;;;24.30;66.50;;;;;;4859115;29;20491;-86
2023/08/10 04:28:02;;;;;;;2.70;2.47;;;24.30;66.50;;;;;;4850532;29;20516;-86
2023/08/10 04:30:30;;;;;;;2.30;2.10;;;24.30;66.60;;;;;;4851512;29;20498;-86
2023/08/10 04:32:59;;;;;;;2.80;2.30;;;24.30;66.50;;;;;;4855881;29;20466;-85
2023/08/10 04:35:28;;;;;;;2.07;1.97;;;24.30;66.60;;;;;;4853631;29;20475;-88
2023/08/10 04:37:56;;;;;;;2.33;2.13;;;24.30;66.60;;;;;;4850609;29;20471;-85
2023/08/10 04:40:25;;;;;;;2.60;2.40;;;24.30;66.60;;;;;;4851519;29;20479;-85
2023/08/10 04:42:53;;;;;;;2.30;2.10;;;24.30;66.60;;;;;;4854783;29;20491;-86
2023/08/10 04:45:21;;;;;;;2.33;2.13;;;24.30;66.60;;;;;;4856228;29;20595;-85
2023/08/10 04:47:49;;;;;;;2.57;2.37;;;24.30;66.60;;;;;;4846372;29;20487;-87
2023/08/10 04:50:18;;;;;;;2.93;2.13;;;24.30;66.60;;;;;;4856066;29;20472;-85
2023/08/10 04:52:47;;;;;;;2.63;2.17;;;24.30;66.60;;;;;;4851294;29;20501;-85
2023/08/10 04:55:16;;;;;;;2.40;2.00;;;24.30;66.60;;;;;;4862297;29;20456;-86
2023/08/10 04:57:44;;;;;;;2.37;2.10;;;24.30;66.60;;;;;;4853120;29;20963;-86
2023/08/10 05:00:13;;;;;;;2.30;2.10;;;24.30;66.60;;;;;;4852590;29;20466;-87
2023/08/10 05:02:42;;;;;;;2.43;2.13;;;24.30;66.60;;;;;;4855852;29;20476;-86
2023/08/10 05:05:12;;;;;;;2.10;1.90;;;24.30;66.60;;;;;;4854498;29;20825;-86
2023/08/10 05:07:40;;;;;;;2.40;2.10;;;24.30;66.60;;;;;;4854424;29;20495;-89
2023/08/10 05:10:10;;;;;;;2.53;2.10;;;24.30;66.60;;;;;;4856550;29;20471;-89
2023/08/10 05:12:39;;;;;;;2.30;2.10;;;24.30;66.60;;;;;;4869002;29;20864;-85
2023/08/10 05:15:09;;;;;;;2.40;2.30;;;24.30;66.60;;;;;;4859007;29;20512;-87
2023/08/10 05:17:39;;;;;;;2.47;2.27;;;24.30;66.50;;;;;;4852978;29;20463;-86
2023/08/10 05:20:11;;;;;;;2.00;1.90;;;24.30;66.50;;;;;;4850733;29;20471;-86
2023/08/10 05:22:41;;;;;;;2.53;2.33;;;24.30;66.50;;;;;;4848631;29;20481;-88
2023/08/10 05:25:14;;;;;;;2.70;1.90;;;24.30;66.50;;;;;;4852758;29;20467;-89
2023/08/10 05:27:46;;;;;;;1.97;1.77;;;24.30;66.50;;;;;;4851320;29;20487;-86
2023/08/10 05:30:14;;;;;;;2.30;1.77;;;24.30;66.50;;;;;;4853095;29;21051;-85
2023/08/10 05:32:43;;;;;;;2.23;2.03;;;24.30;66.50;;;;;;4856315;29;20471;-85
2023/08/10 05:35:14;;;;;;;2.90;2.13;;;24.30;66.50;;;;;;4858695;29;20559;-86
2023/08/10 05:37:42;;;;;;;2.70;2.50;;;24.30;66.50;;;;;;4859398;29;20467;-86
2023/08/10 05:40:12;;;;;;;2.50;2.30;;;24.30;66.40;;;;;;4851805;29;20976;-87
2023/08/10 05:42:42;;;;;;;2.40;2.20;;;24.30;66.50;;;;;;4854921;29;20489;-86
2023/08/10 05:45:15;;;;;;;2.03;1.83;;;24.30;66.50;;;;;;4855818;29;20467;-89
2023/08/10 05:47:45;;;;;;;1.93;1.83;;;24.30;66.40;;;;;;4857939;29;21190;-86
2023/08/10 05:50:14;;;;;;;1.93;1.80;;;24.30;66.40;;;;;;4858914;29;20471;-88
2023/08/10 05:52:43;;;;;;;1.77;1.67;;;24.30;66.40;;;;;;4854773;29;20548;-86
2023/08/10 05:55:13;;;;;;;1.80;1.70;;;24.30;66.40;;;;;;4855315;29;20469;-86
2023/08/10 05:57:42;;;;;;;1.93;1.80;;;24.30;66.30;;;;;;4852574;29;20556;-86
2023/08/10 06:00:13;;;;;;;1.93;1.70;;;24.30;66.40;;;;;;4852924;29;20480;-88
2023/08/10 06:02:42;;;;;;;2.03;1.93;;;24.40;66.30;;;;;;4857009;29;20967;-86
2023/08/10 06:05:12;;;;;;;2.13;1.93;;;24.30;66.30;;;;;;4852975;29;20480;-86
2023/08/10 06:07:41;;;;;;;1.67;1.50;;;24.40;66.30;;;;;;4853292;29;20460;-87
2023/08/10 06:10:09;;;;;;;2.00;1.80;;;24.40;66.30;;;;;;4854385;29;20486;-88
2023/08/10 06:12:39;;;;;;;1.93;1.70;;;24.40;66.30;;;;;;4857096;29;21063;-87
2023/08/10 06:15:08;;;;;;;2.00;1.83;;;24.40;66.20;;;;;;4857377;29;20469;-86
2023/08/10 06:17:37;;;;;;;1.93;1.73;;;24.40;66.20;;;;;;4855265;29;20556;-85
2023/08/10 06:20:09;;;;;;;1.90;1.80;;;24.40;66.20;;;;;;4860565;29;20560;-85
2023/08/10 06:22:39;;;;;;;1.63;1.53;;;24.40;66.20;;;;;;4856653;29;21026;-85
2023/08/10 06:25:09;;;;;;;1.87;1.77;;;24.40;66.20;;;;;;4859286;29;21010;-85
2023/08/10 06:27:38;;;;;;;2.20;2.00;;;24.40;66.20;;;;;;4854191;29;20521;-84
2023/08/10 06:30:08;;;;;;;2.10;1.90;;;24.40;66.10;;;;;;4856933;29;20475;-85
2023/08/10 06:32:37;;;;;;;1.80;1.70;;;24.40;66.10;;;;;;4859261;29;20465;-86
2023/08/10 06:35:08;;;;;;;2.47;2.10;;;24.40;66.10;;;;;;4856224;29;20467;-85
2023/08/10 06:37:37;;;;;;;1.80;1.70;;;24.40;66.10;;;;;;4855000;29;20593;-85
2023/08/10 06:40:08;;;;;;;1.43;1.33;;;24.40;66.00;;;;;;4854744;29;20457;-85
2023/08/10 06:42:37;;;;;;;2.60;1.80;;;24.40;66.00;;;;;;4858184;29;20590;-85
2023/08/10 06:45:14;;;;;;;1.87;1.67;;;24.40;66.00;;;;;;4857204;29;20464;-87
2023/08/10 06:47:43;;;;;;;2.17;1.70;;;24.40;66.00;;;;;;4869694;29;21590;-85
2023/08/10 06:50:12;;;;;;;2.57;1.87;;;24.40;66.00;;;;;;4857710;29;20468;-85
2023/08/10 06:52:41;;;;;;;2.07;1.90;;;24.40;66.00;;;;;;4858268;29;20496;-87
2023/08/10 06:55:11;;;;;;;1.70;1.60;;;24.40;66.00;;;;;;4859939;29;20457;-86
2023/08/10 06:57:40;;;;;;;2.17;1.43;;;24.40;66.00;;;;;;4857523;29;20506;-86
2023/08/10 07:00:19;;;;;;;1.77;1.53;;;24.40;66.00;;;;;;4856259;29;21087;-87
2023/08/10 07:02:53;;;;;;;1.60;1.50;;;24.40;65.90;;;;;;4857306;29;20562;-88
2023/08/10 07:05:25;;;;;;;1.60;1.50;;;24.50;65.90;;;;;;4858073;29;20465;-91
2023/08/10 07:07:54;;;;;;;2.90;1.80;;;24.50;65.90;;;;;;4858394;29;20470;-88
2023/08/10 07:10:23;;;;;;;1.30;1.20;;;24.40;65.90;;;;;;4861678;29;21668;-87
2023/08/10 07:12:51;;;;;;;2.10;1.60;;;24.50;65.90;;;;;;4858078;29;20477;-86
2023/08/10 07:15:21;;;;;;;1.70;1.57;;;24.50;65.70;;;;;;4858980;29;20477;-85
2023/08/10 07:17:49;;;;;;;1.70;1.60;;;24.50;65.70;;;;;;4861520;29;20490;-85
2023/08/10 07:20:19;;;;;;;1.50;1.40;;;24.50;65.70;;;;;;4865045;29;20582;-86
2023/08/10 07:22:48;;;;;;;1.93;1.63;;;24.50;65.70;;;;;;4848654;29;20512;-86
2023/08/10 07:25:19;;;;;;;1.60;1.50;;;24.60;65.70;;;;;;4854338;29;20473;-86
2023/08/10 07:27:48;;;;;;;2.03;1.83;;;24.60;65.70;;;;;;4850176;29;20508;-86
2023/08/10 07:30:16;;;;;;;1.67;1.40;;;24.60;65.60;;;;;;4857546;29;20470;-87
2023/08/10 07:32:46;;;;;;;2.10;1.90;;;24.60;65.60;;;;;;4851575;29;20469;-86
2023/08/10 07:35:14;;;;;;;2.60;1.90;;;24.60;65.40;;;;;;4854146;29;20473;-85
2023/08/10 07:37:43;;;;;;;2.83;1.70;;;24.60;65.40;;;;;;4854602;29;20466;-88
2023/08/10 07:40:12;;;;;;;2.07;1.67;;;24.60;65.40;;;;;;4855140;29;20497;-87
2023/08/10 07:42:40;;;;;;;2.20;1.93;;;24.70;65.40;;;;;;4853491;29;20505;-86
2023/08/10 07:45:10;;;;;;;2.00;1.60;;;24.70;65.40;;;;;;4854320;29;20497;-85
2023/08/10 07:47:38;;;;;;;1.70;1.60;;;24.70;65.40;;;;;;4854788;29;20560;-86
2023/08/10 07:50:10;;;;;;;1.93;1.83;;;24.70;65.30;;;;;;4853659;29;20477;-86
2023/08/10 07:52:38;;;;;;;1.70;1.60;;;24.70;65.30;;;;;;4853394;29;20492;-85
2023/08/10 07:55:07;;;;;;;2.60;1.63;;;24.70;65.30;;;;;;4853964;29;20878;-85
2023/08/10 07:57:35;;;;;;;1.50;1.40;;;24.70;65.20;;;;;;4850024;29;20478;-85
2023/08/10 08:00:06;;;;;;;1.70;1.60;;;24.70;65.20;;;;;;4852372;29;20995;-88
2023/08/10 08:02:40;;;;;;;1.50;1.30;;;24.70;65.10;;;;;;4852456;29;20448;-90
2023/08/10 08:05:10;;;;;;;1.70;1.60;;;24.70;65.10;;;;;;4854914;29;21010;-86
2023/08/10 08:07:38;;;;;;;1.63;1.53;;;24.70;65.10;;;;;;4850524;29;21307;-87
2023/08/10 08:10:07;;;;;;;3.63;1.70;;;24.80;65.00;;;;;;4851843;29;20495;-87
2023/08/10 08:12:35;;;;;;;2.23;2.03;;;24.70;65.40;;;;;;4854546;29;20476;-87
2023/08/10 08:15:04;;;;;;;1.83;1.73;;;24.70;65.60;;;;;;4856445;29;20472;-86
2023/08/10 08:18:11;;;;;;;3.37;2.50;;;24.70;65.70;;;;;;4852492;29;20480;-86
2023/08/10 08:20:41;;;;;;;3.43;2.30;;;24.70;65.80;;;;;;4853962;29;20496;-85
2023/08/10 08:23:09;;;;;;;3.80;2.20;;;24.70;65.90;;;;;;4854817;29;20496;-85
2023/08/10 08:25:38;;;;;;;2.00;1.90;;;24.70;65.90;;;;;;4853570;29;21083;-84
2023/08/10 08:28:07;;;;;;;1.90;1.63;;;24.70;65.80;;;;;;4857164;29;20501;-86
2023/08/10 08:30:36;;;;;;;3.23;2.10;;;24.80;65.80;;;;;;4854474;29;21012;-85
2023/08/10 08:33:05;;;;;;;2.43;2.20;;;24.80;65.80;;;;;;4855105;29;20526;-85
2023/08/10 08:35:33;;;;;;;1.53;1.43;;;24.80;65.80;;;;;;4852009;29;21147;-84
2023/08/10 08:38:03;;;;;;;4.67;1.70;;;24.90;65.70;;;;;;4854006;29;20480;-84
2023/08/10 08:40:31;;;;;;;2.00;1.87;;;24.90;65.70;;;;;;4853312;29;20550;-85
2023/08/10 08:43:03;;;;;;;3.13;1.53;;;24.90;65.70;;;;;;4851405;29;20486;-84
2023/08/10 08:45:32;;;;;;;3.77;1.83;;;24.90;65.70;;;;;;4853658;29;20835;-85
2023/08/10 08:48:02;;;;;;;2.07;1.80;;;24.90;65.70;;;;;;4853225;29;21352;-86
2023/08/10 08:50:31;;;;;;;1.87;1.50;;;25.00;65.60;;;;;;4854751;29;20465;-89
2023/08/10 08:53:04;;;;;;;2.37;1.57;;;25.00;65.60;;;;;;4852668;29;20538;-88
2023/08/10 08:55:32;;;;;;;2.40;1.83;;;25.00;65.50;;;;;;4853443;29;20983;-87
2023/08/10 08:58:01;;;;;;;2.30;2.00;;;25.00;65.50;;;;;;4857048;29;20483;-87
2023/08/10 09:00:31;;;;;;;2.60;2.20;;;25.00;65.40;;;;;;4857674;29;20516;-88
2023/08/10 09:03:00;;;;;;;6.27;3.00;;;25.10;65.40;;;;;;4860326;29;21865;-87
2023/08/10 09:05:30;;;;;;;2.67;2.13;;;25.10;65.40;;;;;;4864852;29;20989;-87
2023/08/10 09:07:59;;;;;;;1.90;1.60;;;25.10;65.40;;;;;;4861467;29;20469;-87
2023/08/10 09:10:29;;;;;;;2.67;2.00;;;25.10;65.40;;;;;;4857717;29;20876;-87
2023/08/10 09:12:58;;;;;;;3.07;1.70;;;25.10;65.50;;;;;;4861784;29;21046;-89
2023/08/10 09:15:27;;;;;;;2.70;1.87;;;25.10;65.50;;;;;;4863809;29;20830;-89
2023/08/10 09:17:56;;;;;;;5.23;2.37;;;25.10;65.50;;;;;;4877678;29;20881;-88
2023/08/10 09:20:27;;;;;;;2.90;2.30;;;25.10;65.50;;;;;;4862378;29;20476;-87
2023/08/10 09:22:58;;;;;;;3.63;2.00;;;25.10;65.50;;;;;;4859662;29;20473;-88
2023/08/10 09:25:35;;;;;;;1.73;1.50;;;25.10;65.50;;;;;;4859927;29;20493;-88
2023/08/10 09:28:09;;;;;;;3.80;2.30;;;25.10;65.50;;;;;;4856944;29;20598;-88
2023/08/10 09:30:37;;;;;;;2.00;1.90;;;25.10;65.50;;;;;;4860141;29;20967;-88
2023/08/10 09:33:06;;;;;;;3.30;2.17;;;25.20;65.60;;;;;;4862045;29;20463;-86
2023/08/10 09:35:34;;;;;;;2.30;1.90;;;25.10;65.60;;;;;;4862869;29;20518;-86
2023/08/10 09:38:03;;;;;;;3.00;1.73;;;25.10;65.60;;;;;;4860096;29;20564;-88
2023/08/10 09:40:33;;;;;;;2.53;1.93;;;25.10;65.60;;;;;;4861459;29;21332;-87
2023/08/10 09:43:08;;;;;;;3.27;1.80;;;25.10;65.60;;;;;;4857681;29;20523;-86
2023/08/10 09:45:39;;;;;;;3.00;1.67;;;25.10;65.60;;;;;;4858484;29;20914;-86
2023/08/10 09:48:12;;;;;;;2.17;2.07;;;25.10;65.70;;;;;;4872143;29;20864;-85
2023/08/10 09:50:45;;;;;;;1.60;1.50;;;25.20;65.70;;;;;;4858462;29;20474;-88
2023/08/10 09:53:14;;;;;;;1.80;1.70;;;25.20;65.70;;;;;;4861352;29;20830;-90
2023/08/10 09:55:44;;;;;;;2.10;1.60;;;25.20;65.60;;;;;;4861425;29;21003;-88
2023/08/10 09:58:12;;;;;;;1.80;1.60;;;25.30;65.60;;;;;;4864834;29;20593;-89
2023/08/10 10:00:41;;;;;;;2.27;2.07;;;25.30;65.60;;;;;;4862514;29;20469;-88
2023/08/10 10:03:10;;;;;;;1.70;1.60;;;25.30;65.40;;;;;;4855950;29;20494;-85
2023/08/10 10:05:39;;;;;;;1.83;1.73;;;25.30;65.60;;;;;;4859030;29;20487;-86
2023/08/10 10:08:07;;;;;;;1.73;1.63;;;25.30;65.60;;;;;;4860853;29;20459;-88
2023/08/10 10:10:37;;;;;;;2.40;1.87;;;25.30;65.40;;;;;;4863309;29;20467;-86
2023/08/10 10:13:11;;;;;;;3.57;2.03;;;25.30;65.40;;;;;;4858484;29;20471;-86
2023/08/10 10:15:41;;;;;;;1.60;1.50;;;25.30;65.40;;;;;;4858256;29;20468;-86
2023/08/10 10:18:11;;;;;;;1.70;1.60;;;25.30;65.40;;;;;;4857307;29;20464;-86
2023/08/10 10:20:42;;;;;;;4.33;2.40;;;25.30;65.40;;;;;;4856166;29;20464;-85
2023/08/10 10:23:15;;;;;;;2.20;2.00;;;25.30;65.40;;;;;;4856516;29;20467;-85
2023/08/10 10:25:56;;;;;;;2.10;1.63;;;25.30;65.60;;;;;;4860454;29;20491;-86
2023/08/10 10:28:28;;;;;;;2.17;2.07;;;25.30;65.40;;;;;;4863794;29;20968;-84
2023/08/10 10:31:06;;;;;;;1.77;1.67;;;25.30;65.60;;;;;;4867983;29;20455;-83
2023/08/10 10:33:35;;;;;;;2.30;1.40;;;25.30;65.60;;;;;;4862448;29;20488;-85
2023/08/10 10:36:10;;;;;;;1.93;1.60;;;25.20;65.70;;;;;;4865468;29;20459;-85
2023/08/10 10:38:46;;;;;;;1.90;1.80;;;25.30;65.60;;;;;;4855466;29;20467;-86
2023/08/10 10:41:15;;;;;;;1.87;1.77;;;25.20;65.60;;;;;;4861864;29;20479;-86
2023/08/10 10:43:45;;;;;;;2.50;2.30;;;25.20;65.70;;;;;;4857831;29;20482;-86
2023/08/10 10:46:36;;;;;;;2.00;1.90;;;25.20;65.70;;;;;;4861834;29;20897;-88
2023/08/10 10:49:09;;;;;;;1.60;1.50;;;25.30;65.70;;;;;;4858967;29;20475;-90
2023/08/10 10:51:54;;;;;;;1.80;1.70;;;25.30;65.70;;;;;;4856710;29;20851;-89
2023/08/10 10:54:24;;;;;;;2.20;2.10;;;25.30;65.70;;;;;;4865790;29;20506;-90
2023/08/10 10:56:53;;;;;;;2.70;2.10;;;25.30;65.70;;;;;;4863366;29;20474;-86
2023/08/10 10:59:23;;;;;;;1.90;1.80;;;25.30;65.70;;;;;;4853252;29;20555;-88
2023/08/10 11:01:51;;;;;;;2.23;1.90;;;25.30;65.70;;;;;;4856501;29;20479;-88
2023/08/10 11:04:22;;;;;;;1.67;1.57;;;25.30;65.70;;;;;;4855308;29;20559;-86
2023/08/10 11:06:50;;;;;;;2.43;1.77;;;25.30;65.70;;;;;;4853933;29;20842;-88
2023/08/10 11:09:22;;;;;;;4.83;2.17;;;25.30;65.60;;;;;;4856613;29;20477;-86
2023/08/10 11:11:51;;;;;;;1.63;1.53;;;25.30;65.40;;;;;;4856135;29;20465;-88
2023/08/10 11:14:21;;;;;;;2.10;1.90;;;25.30;65.40;;;;;;4856605;29;20496;-86
2023/08/10 11:16:52;;;;;;;2.13;1.40;;;25.30;65.40;;;;;;4860472;29;20460;-86
2023/08/10 11:19:21;;;;;;;2.43;1.87;;;25.30;65.40;;;;;;4850266;29;20467;-86
2023/08/10 11:21:51;;;;;;;1.93;1.80;;;25.30;65.40;;;;;;4854317;29;20556;-85
2023/08/10 11:24:21;;;;;;;1.50;1.40;;;25.30;65.40;;;;;;4853666;29;20617;-84
2023/08/10 11:26:50;;;;;;;4.00;1.50;;;25.30;65.40;;;;;;4854975;29;20511;-85
2023/08/10 11:29:19;;;;;;;2.53;2.33;;;25.30;65.40;;;;;;4850251;29;20508;-85
2023/08/10 11:31:48;;;;;;;2.50;2.30;;;25.30;65.30;;;;;;4850123;29;20567;-84
2023/08/10 11:34:23;;;;;;;1.73;1.63;;;25.30;65.30;;;;;;4854487;29;20521;-84
2023/08/10 11:36:53;;;;;;;5.60;1.70;;;25.30;65.30;;;;;;4852312;29;20479;-84
2023/08/10 11:39:22;;;;;;;2.10;2.00;;;25.30;65.30;;;;;;4847764;29;20537;-86
2023/08/10 11:41:51;;;;;;;2.40;1.80;;;25.40;65.20;;;;;;4848219;29;20484;-85
2023/08/10 11:44:29;;;;;;;1.97;1.70;;;25.40;65.10;;;;;;4852187;29;20552;-86
2023/08/10 11:46:59;;;;;;;1.73;1.63;;;25.40;65.10;;;;;;4855805;29;20578;-84
2023/08/10 11:49:33;;;;;;;2.30;1.77;;;25.50;64.90;;;;;;4854829;29;20485;-84
2023/08/10 11:52:03;;;;;;;3.13;2.03;;;25.60;64.70;;;;;;4851248;29;20474;-84
2023/08/10 11:54:34;;;;;;;3.53;2.00;;;25.70;64.60;;;;;;4850115;29;20498;-84
2023/08/10 11:57:11;;;;;;;1.73;1.60;;;25.90;64.10;;;;;;4851868;29;20471;-84
2023/08/10 11:59:40;;;;;;;3.43;2.30;;;26.00;63.90;;;;;;4855342;29;20480;-85
2023/08/10 12:02:11;;;;;;;1.63;1.53;;;26.10;63.70;;;;;;4854590;29;20836;-83
2023/08/10 12:04:41;;;;;;;1.50;1.40;;;26.40;63.10;;;;;;4853522;29;20455;-84
2023/08/10 12:07:10;;;;;;;2.60;2.40;;;26.50;62.80;;;;;;4853648;29;20489;-84
2023/08/10 12:09:47;;;;;;;2.80;2.00;;;26.70;62.40;;;;;;4853333;29;20560;-84
2023/08/10 12:12:16;;;;;;;3.47;2.23;;;26.80;62.10;;;;;;4847869;29;20581;-87
2023/08/10 12:14:44;;;;;;;2.47;1.80;;;26.90;61.80;;;;;;4857561;29;20477;-85
2023/08/10 12:17:15;;;;;;;2.03;1.83;;;27.10;61.50;;;;;;4854007;29;20499;-84
2023/08/10 12:19:45;;;;;;;1.70;1.60;;;27.10;61.50;;;;;;4857288;29;20470;-87
2023/08/10 12:22:16;;;;;;;2.70;1.90;;;27.20;61.20;;;;;;4849150;29;20469;-85
2023/08/10 12:24:44;;;;;;;2.23;1.80;;;27.20;61.00;;;;;;4851916;29;20518;-86
2023/08/10 12:27:13;;;;;;;2.20;1.90;;;27.30;60.90;;;;;;4852554;29;20531;-84
2023/08/10 12:29:41;;;;;;;2.50;1.80;;;27.30;60.80;;;;;;4859120;29;21026;-84
2023/08/10 12:32:09;;;;;;;2.17;1.97;;;27.30;60.80;;;;;;4854363;29;20473;-83
2023/08/10 12:34:40;;;;;;;1.83;1.60;;;27.30;60.80;;;;;;4846159;29;20469;-85
2023/08/10 12:37:09;;;;;;;5.40;2.30;;;27.30;60.80;;;;;;4849186;29;20461;-84
2023/08/10 12:39:37;;;;;;;3.10;1.80;;;27.30;60.80;;;;;;4870655;29;20812;-84
2023/08/10 12:42:06;;;;;;;4.13;1.90;;;27.30;60.90;;;;;;4855997;29;20590;-85
2023/08/10 12:44:34;;;;;;;6.53;2.10;;;27.30;61.00;;;;;;4860888;29;20473;-88
2023/08/10 12:47:02;;;;;;;8.20;2.10;;;27.30;61.00;;;;;;4851209;29;20478;-85
2023/08/10 12:49:31;;;;;;;2.50;2.20;;;27.30;61.10;;;;;;4854086;29;20559;-86
2023/08/10 12:51:59;;;;;;;4.60;2.30;;;27.20;61.40;;;;;;4862061;29;20892;-84
2023/08/10 12:54:29;;;;;;;2.93;1.53;;;27.20;61.60;;;;;;4852335;29;20466;-86
2023/08/10 12:56:57;;;;;;;3.80;2.10;;;27.20;61.70;;;;;;4855529;29;20491;-87
2023/08/10 12:59:25;;;;;;;2.80;2.13;;;27.20;61.80;;;;;;4854968;29;20480;-86
2023/08/10 13:01:53;;;;;;;2.93;1.90;;;27.10;62.00;;;;;;4851818;29;20558;-86